Airfield :
LOGIN :

Register | Disclaimer

   EN    FR    IT 

 










Legend :    VFR   Marginal VFR   IFR   Intensive IFR   Very Intensive IFR
Visi :
Ceiling :
>= 8 km
>= 3000ft
5 to 8 km
1000 to 3000 ft
1500m to 5 km
500 to 1000 ft
800 to 1500m
200 to 500 ft
< 800m
< 200 ft
Symbols :   Thunderstorms  Fog  Heavy snow  Heavy precipitations  Wind > 20 kt
SIGMETs :     Misc.  Thunderstorms  Icing  Turbulence  Mountain Waves  Volcanic Ashes






- Airport Elevation : 14 ft
- IATA code : BRE


EDDW - Bremen Neuenland

CURRENT METAR :
  • 200820Z 29011KT 9999 -SHSN SCT025CB 01/M01 Q1021 RESHSN TEMPO 31020G30KT 4000 SHSNRA BKN012CB

EXPIRED METARs :
  • 200750Z 29015KT 9999 SCT030CB 01/M02 Q1020 TEMPO 31020G30KT 4000 SHSNRA BKN012CB
  • 200720Z 30013KT 9999 -SHGS BKN026TCU 01/M02 Q1020 TEMPO 31020G30KT 4000 SHSNRA BKN012CB
  • 200650Z 30013KT 9999 -SHSN SCT030 01/M02 Q1020 TEMPO 31020G30KT 4000 SHSNRA BKN012CB
  • 200620Z 30014KT 9999 -SHSN FEW010 SCT025CB 01/M01 Q1019 TEMPO 31020G30KT 4000 SHSNRA BKN012CB
  • 200550Z 30011KT 9999 FEW027 01/M01 Q1019 TEMPO 31020G30KT 4500 SHSNRA BKN012CB

TAF TAF EDDW
Valid from the 20 at 06:00 until the 21 at 06:00 UTC


200500Z 2006/2106 30012KT 9999 SCT020
TEMPO 2006/2016 32020G35KT 2500 SHSNRA BKN012CB
TEMPO 2016/2017 32015G25KT
BECMG 2017/2019 28007KT
TEMPO 2101/2106 2500 SHSNRA BKN012CB



MET'MAP, your aeronautical weather chart ! - Copyright ORBIFLY December 2007 - Disclaimer

ORBIFLY MET'MAP TEAM :

Programming & Development : Alexandra Zaïnal
Concept & original design : Baudouin d'Aumeries
Assistance for programming : Marc-Olivier Méhu
Technical & hardware support : Manuel Goepfert

Contact : metmap@orbifly.com




SOURCES & CREDITS :

   NOAA